createdAt,value
2022-10-21T00:00:50.955Z,2.90
2022-10-21T00:03:19.238Z,2.90
2022-10-21T00:05:47.956Z,2.60
2022-10-21T00:08:16.514Z,2.50
2022-10-21T00:10:44.510Z,2.30
2022-10-21T00:13:12.658Z,2.20
2022-10-21T00:15:41.930Z,2.30
2022-10-21T00:18:09.811Z,2.40
2022-10-21T00:20:40.504Z,2.30
2022-10-21T00:23:08.490Z,2.10
2022-10-21T00:25:36.401Z,2.00
2022-10-21T00:28:04.353Z,1.80
2022-10-21T00:30:32.228Z,1.70
2022-10-21T00:33:03.169Z,1.70
2022-10-21T00:35:34.551Z,1.60
2022-10-21T00:38:02.707Z,1.70
2022-10-21T00:40:30.654Z,1.70
2022-10-21T00:42:58.815Z,2.30
2022-10-21T00:45:28.426Z,2.10
2022-10-21T00:48:02.652Z,1.70
2022-10-21T00:50:40.187Z,1.90
2022-10-21T00:53:15.366Z,1.70
2022-10-21T00:55:49.086Z,1.70
2022-10-21T00:58:19.882Z,1.80
2022-10-21T01:00:47.861Z,2.00
2022-10-21T01:03:17.297Z,1.90
2022-10-21T01:05:46.268Z,1.50
2022-10-21T01:08:14.287Z,1.50
2022-10-21T01:10:42.893Z,1.60
2022-10-21T01:13:20.410Z,1.50
2022-10-21T01:15:56.595Z,1.50
2022-10-21T01:18:33.018Z,1.50
2022-10-21T01:21:09.987Z,1.40
2022-10-21T01:24:07.513Z,1.40
2022-10-21T01:27:15.494Z,1.40
2022-10-21T01:30:06.075Z,1.30
2022-10-21T01:33:00.752Z,1.20
2022-10-21T01:35:36.873Z,1.20
2022-10-21T01:38:10.401Z,0.90
2022-10-21T01:40:46.474Z,0.80
2022-10-21T01:43:20.319Z,0.90
2022-10-21T01:45:52.448Z,0.90
2022-10-21T01:48:25.591Z,0.80
2022-10-21T01:50:57.460Z,0.70
2022-10-21T01:53:29.494Z,0.60
2022-10-21T01:55:59.896Z,0.60
2022-10-21T01:58:32.370Z,0.80
2022-10-21T02:01:03.579Z,0.90
2022-10-21T02:03:36.137Z,0.80
2022-10-21T02:06:04.463Z,0.80
2022-10-21T02:08:32.601Z,0.70
2022-10-21T02:11:04.605Z,0.80
2022-10-21T02:13:36.758Z,0.70
2022-10-21T02:16:10.066Z,0.50
2022-10-21T02:18:39.312Z,0.50
2022-10-21T02:21:12.280Z,0.50
2022-10-21T02:23:47.234Z,0.60
2022-10-21T02:26:15.181Z,0.80
2022-10-21T02:28:43.326Z,1.00
2022-10-21T02:31:48.957Z,0.90
2022-10-21T02:34:27.444Z,0.90
2022-10-21T02:36:59.474Z,1.20
2022-10-21T02:39:33.113Z,1.00
2022-10-21T02:42:03.084Z,0.90
2022-10-21T02:44:31.174Z,1.00
2022-10-21T02:46:59.433Z,1.10
2022-10-21T02:49:28.710Z,1.10
2022-10-21T02:51:56.742Z,1.00
2022-10-21T02:54:24.697Z,1.00
2022-10-21T02:56:52.574Z,0.80
2022-10-21T02:59:20.486Z,0.80
2022-10-21T03:01:48.394Z,1.10
2022-10-21T03:04:16.277Z,1.00
2022-10-21T03:06:45.521Z,1.20
2022-10-21T03:09:13.412Z,1.20
2022-10-21T03:11:41.306Z,1.10
2022-10-21T03:14:09.220Z,1.10
2022-10-21T03:16:37.115Z,1.10
2022-10-21T03:19:05.131Z,1.30
2022-10-21T03:21:33.003Z,1.20
2022-10-21T03:24:02.562Z,1.30
2022-10-21T03:26:30.506Z,1.40
2022-10-21T03:28:58.392Z,1.30
2022-10-21T03:31:26.357Z,1.30
2022-10-21T03:33:54.318Z,1.20
2022-10-21T03:36:22.242Z,1.20
2022-10-21T03:38:50.167Z,1.00
2022-10-21T03:41:19.636Z,0.80
2022-10-21T03:43:47.581Z,0.70
2022-10-21T03:46:15.474Z,0.50
2022-10-21T03:48:43.379Z,0.50
2022-10-21T03:51:11.344Z,-0.30
2022-10-21T03:53:43.192Z,0.80
2022-10-21T03:56:11.859Z,0.80
2022-10-21T03:58:41.605Z,0.90
2022-10-21T04:01:13.131Z,1.10
2022-10-21T04:03:41.314Z,0.90
2022-10-21T04:06:09.250Z,0.90
2022-10-21T04:08:37.246Z,1.20
2022-10-21T04:11:05.355Z,1.20
2022-10-21T04:13:33.450Z,1.30
2022-10-21T04:16:05.107Z,1.40
2022-10-21T04:18:33.023Z,1.30
2022-10-21T04:21:00.994Z,1.20
2022-10-21T04:23:28.897Z,1.20
2022-10-21T04:25:56.989Z,1.10
2022-10-21T04:28:24.885Z,1.50
2022-10-21T04:30:52.834Z,1.10
2022-10-21T04:33:22.218Z,1.20
2022-10-21T04:35:50.141Z,1.00
2022-10-21T04:38:18.048Z,0.90
2022-10-21T04:40:45.964Z,1.00
2022-10-21T04:43:13.853Z,0.90
2022-10-21T04:45:41.828Z,0.90
2022-10-21T04:48:09.728Z,0.90
2022-10-21T04:50:38.976Z,0.90
2022-10-21T04:53:06.932Z,0.90
2022-10-21T04:55:34.883Z,0.90
2022-10-21T04:58:02.821Z,0.90
2022-10-21T05:00:30.764Z,1.10
2022-10-21T05:03:00.548Z,1.10
2022-10-21T05:05:28.651Z,1.10
2022-10-21T05:07:57.877Z,1.30
2022-10-21T05:10:25.801Z,1.60
2022-10-21T05:12:54.006Z,1.90
2022-10-21T05:15:22.170Z,2.10
2022-10-21T05:17:50.067Z,2.20
2022-10-21T05:20:18.136Z,2.30
2022-10-21T05:22:46.038Z,2.30
2022-10-21T05:25:15.374Z,2.30
2022-10-21T05:27:43.341Z,2.20
2022-10-21T05:30:12.252Z,2.30
2022-10-21T05:32:40.949Z,2.40
2022-10-21T05:35:09.187Z,2.40
2022-10-21T05:37:37.102Z,2.40
2022-10-21T05:40:05.975Z,2.50
2022-10-21T05:42:35.543Z,2.50
2022-10-21T05:45:03.545Z,2.60
2022-10-21T05:47:31.424Z,2.70
2022-10-21T05:49:59.302Z,2.80
2022-10-21T05:52:27.237Z,2.90
2022-10-21T05:54:55.170Z,2.90
2022-10-21T05:57:23.071Z,3.00
2022-10-21T05:59:52.401Z,3.00
2022-10-21T06:02:20.315Z,3.00
2022-10-21T06:04:48.260Z,3.00
2022-10-21T06:07:16.198Z,3.00
2022-10-21T06:09:44.163Z,3.00
2022-10-21T06:12:12.069Z,3.10
2022-10-21T06:14:39.987Z,3.10
2022-10-21T06:17:10.276Z,3.10
2022-10-21T06:19:38.189Z,3.10
2022-10-21T06:22:06.085Z,3.20
2022-10-21T06:24:33.997Z,3.20
2022-10-21T06:27:01.913Z,3.40
2022-10-21T06:29:29.957Z,3.20
2022-10-21T06:31:57.876Z,3.30
2022-10-21T06:34:27.256Z,3.40
2022-10-21T06:36:55.244Z,3.40
2022-10-21T06:39:23.207Z,3.40
2022-10-21T06:41:51.157Z,3.50
2022-10-21T06:44:19.186Z,3.30
2022-10-21T06:46:47.165Z,3.30
2022-10-21T06:49:15.076Z,3.40
2022-10-21T06:51:44.368Z,3.60
2022-10-21T06:54:12.297Z,3.70
2022-10-21T06:56:40.613Z,3.70
2022-10-21T06:59:08.522Z,3.80
2022-10-21T07:01:55.195Z,3.90
2022-10-21T07:04:24.635Z,3.90
2022-10-21T07:06:54.045Z,3.90
2022-10-21T07:09:22.049Z,3.90
2022-10-21T07:11:50.047Z,4.00
2022-10-21T07:14:17.977Z,4.10
2022-10-21T07:16:46.180Z,4.10
2022-10-21T07:19:14.210Z,4.10
2022-10-21T07:21:42.157Z,4.20
2022-10-21T07:24:12.156Z,4.30
2022-10-21T07:26:40.493Z,4.40
2022-10-21T07:29:08.489Z,4.80
2022-10-21T07:31:38.324Z,4.60
2022-10-21T07:34:08.170Z,4.70
2022-10-21T07:36:37.992Z,5.00
2022-10-21T07:39:09.312Z,4.80
2022-10-21T07:41:41.634Z,4.90
2022-10-21T07:44:09.784Z,5.00
2022-10-21T07:46:39.264Z,4.90
2022-10-21T07:49:07.222Z,4.90
2022-10-21T07:51:35.188Z,4.90
2022-10-21T07:54:03.880Z,5.20
2022-10-21T07:56:34.292Z,5.00
2022-10-21T07:59:07.800Z,5.10
2022-10-21T08:01:40.253Z,5.20
2022-10-21T08:04:08.424Z,5.30
2022-10-21T08:06:36.807Z,5.30
2022-10-21T08:09:05.738Z,5.40
2022-10-21T08:11:34.899Z,5.40
2022-10-21T08:14:07.791Z,6.10
2022-10-21T08:16:36.177Z,5.40
2022-10-21T08:19:05.138Z,5.40
2022-10-21T08:21:33.048Z,5.50
2022-10-21T08:24:02.821Z,5.50
2022-10-21T08:26:30.758Z,5.50
2022-10-21T08:31:33.301Z,5.60
2022-10-21T08:34:01.279Z,5.70
2022-10-21T08:36:29.219Z,5.70
2022-10-21T08:38:58.391Z,5.70
2022-10-21T08:41:51.282Z,5.70
2022-10-21T08:44:28.076Z,5.70
2022-10-21T08:47:03.576Z,5.70
2022-10-21T08:49:42.240Z,5.80
2022-10-21T08:52:14.223Z,5.80
2022-10-21T08:54:46.991Z,6.00
2022-10-21T08:57:15.613Z,6.00
2022-10-21T08:59:43.826Z,6.90
2022-10-21T09:02:40.587Z,6.10
2022-10-21T09:05:28.893Z,6.20
2022-10-21T09:08:07.145Z,6.10
2022-10-21T09:10:45.202Z,6.10
2022-10-21T09:13:19.275Z,6.20
2022-10-21T09:15:56.104Z,6.30
2022-10-21T09:18:40.187Z,6.30
2022-10-21T09:21:15.701Z,6.40
2022-10-21T09:23:59.036Z,6.60
2022-10-21T09:26:36.908Z,6.80
2022-10-21T09:29:35.505Z,7.00
2022-10-21T09:32:14.899Z,7.20
2022-10-21T09:34:49.919Z,7.40
2022-10-21T09:37:26.092Z,7.40
2022-10-21T09:40:02.524Z,7.70
2022-10-21T09:42:46.455Z,7.80
2022-10-21T09:45:23.656Z,7.80
2022-10-21T09:47:57.974Z,7.90
2022-10-21T09:50:29.179Z,8.10
2022-10-21T09:53:05.538Z,8.20
2022-10-21T09:55:33.839Z,7.90
2022-10-21T09:58:03.908Z,8.00
2022-10-21T10:00:47.875Z,8.00
2022-10-21T10:03:35.131Z,7.90
2022-10-21T10:06:06.318Z,8.00
2022-10-21T10:08:38.359Z,8.20
2022-10-21T10:11:18.621Z,8.20
2022-10-21T10:13:48.525Z,8.20
2022-10-21T10:16:22.281Z,8.30
2022-10-21T10:18:51.681Z,8.50
2022-10-21T10:21:22.784Z,8.50
2022-10-21T10:23:52.570Z,8.60
2022-10-21T10:26:28.542Z,8.70
2022-10-21T10:28:59.257Z,8.80
2022-10-21T10:31:34.017Z,9.00
2022-10-21T10:34:05.141Z,9.60
2022-10-21T10:36:37.553Z,10.10
2022-10-21T10:39:08.690Z,10.40
2022-10-21T10:41:40.728Z,10.70
2022-10-21T10:44:19.660Z,11.10
2022-10-21T10:46:55.827Z,11.70
2022-10-21T10:49:25.018Z,12.30
2022-10-21T10:52:21.175Z,12.70
2022-10-21T10:54:49.559Z,12.10
2022-10-21T10:57:23.998Z,10.90
2022-10-21T11:00:05.743Z,10.50
2022-10-21T11:02:41.216Z,10.30
2022-10-21T11:05:19.464Z,10.60
2022-10-21T11:07:50.858Z,10.70
2022-10-21T11:10:35.053Z,10.50
2022-10-21T11:13:05.187Z,10.60
2022-10-21T11:15:57.025Z,10.40
2022-10-21T11:18:34.732Z,10.40
2022-10-21T11:21:16.921Z,10.20
2022-10-21T11:24:07.445Z,10.10
2022-10-21T11:26:46.578Z,10.20
2022-10-21T11:29:27.069Z,10.50
2022-10-21T11:32:17.052Z,10.50
2022-10-21T11:34:59.904Z,11.30
2022-10-21T11:37:44.187Z,12.60
2022-10-21T11:40:22.128Z,13.40
2022-10-21T11:42:52.312Z,14.00
2022-10-21T11:45:38.166Z,13.60
2022-10-21T11:48:16.463Z,13.00
2022-10-21T11:50:51.637Z,13.40
2022-10-21T11:53:33.272Z,13.40
2022-10-21T11:56:13.909Z,13.50
2022-10-21T11:58:50.399Z,13.10
2022-10-21T12:01:30.116Z,12.20
2022-10-21T12:04:20.334Z,11.30
2022-10-21T12:06:59.624Z,11.30
2022-10-21T12:09:33.425Z,11.30
2022-10-21T12:12:06.553Z,11.10
2022-10-21T12:14:38.339Z,11.00
2022-10-21T12:17:11.890Z,10.90
2022-10-21T12:19:39.970Z,10.90
2022-10-21T12:22:11.629Z,10.90
2022-10-21T12:24:47.967Z,10.90
2022-10-21T12:27:24.336Z,10.90
2022-10-21T12:30:02.094Z,10.80
2022-10-21T12:32:36.611Z,10.70
2022-10-21T12:35:05.153Z,10.60
2022-10-21T12:38:07.914Z,10.60
2022-10-21T12:40:39.936Z,10.40
2022-10-21T12:43:22.327Z,10.40
2022-10-21T12:46:04.201Z,10.50
2022-10-21T12:48:35.244Z,10.40
2022-10-21T12:51:06.203Z,10.50
2022-10-21T12:53:39.104Z,10.40
2022-10-21T12:56:08.602Z,10.50
2022-10-21T12:58:41.799Z,10.50
2022-10-21T13:01:45.310Z,10.40
2022-10-21T13:04:45.206Z,10.30
2022-10-21T13:07:36.671Z,10.20
2022-10-21T13:10:26.930Z,10.10
2022-10-21T13:13:30.676Z,10.00
2022-10-21T13:15:59.384Z,9.90
2022-10-21T13:18:54.196Z,10.00
2022-10-21T13:21:36.417Z,10.00
2022-10-21T13:24:15.074Z,10.00
2022-10-21T13:26:48.330Z,9.90
2022-10-21T13:29:30.095Z,10.00
2022-10-21T13:32:32.416Z,10.00
2022-10-21T13:35:19.351Z,9.90
2022-10-21T13:37:55.686Z,9.90
2022-10-21T13:40:28.858Z,9.80
2022-10-21T13:43:00.411Z,9.80
2022-10-21T13:45:31.516Z,9.80
2022-10-21T13:48:08.533Z,9.70
2022-10-21T13:50:42.036Z,9.70
2022-10-21T13:53:29.574Z,9.70
2022-10-21T13:56:00.028Z,9.70
2022-10-21T13:58:29.760Z,9.70
2022-10-21T14:00:59.054Z,10.00
2022-10-21T14:03:28.348Z,9.70
2022-10-21T14:06:01.050Z,9.70
2022-10-21T14:08:31.925Z,9.60
2022-10-21T14:11:02.058Z,9.50
2022-10-21T14:13:35.377Z,9.50
2022-10-21T14:16:04.265Z,9.50
2022-10-21T14:18:37.300Z,9.50
2022-10-21T14:21:09.245Z,9.50
2022-10-21T14:23:37.264Z,9.40
2022-10-21T14:26:08.134Z,9.40
2022-10-21T14:28:37.947Z,9.40
2022-10-21T14:31:11.708Z,9.40
2022-10-21T14:33:42.712Z,9.40
2022-10-21T14:36:15.631Z,9.50
2022-10-21T14:38:51.734Z,9.50
2022-10-21T14:41:23.806Z,9.50
2022-10-21T14:43:53.756Z,9.50
2022-10-21T14:46:22.408Z,9.50
2022-10-21T14:48:54.988Z,9.50
2022-10-21T14:51:27.495Z,9.50
2022-10-21T14:53:59.568Z,9.40
2022-10-21T14:56:35.242Z,9.40
2022-10-21T14:59:19.499Z,9.40
2022-10-21T15:01:47.709Z,9.40
2022-10-21T15:04:41.494Z,9.40
2022-10-21T15:10:18.815Z,9.40
2022-10-21T15:12:50.437Z,9.40
2022-10-21T15:15:43.345Z,9.40
2022-10-21T15:18:15.289Z,9.40
2022-10-21T15:20:58.583Z,9.30
2022-10-21T15:23:31.069Z,9.30
2022-10-21T15:26:03.536Z,9.30
2022-10-21T15:28:33.071Z,9.30
2022-10-21T15:31:02.476Z,9.30
2022-10-21T15:33:31.463Z,9.30
2022-10-21T15:36:04.437Z,9.30
2022-10-21T15:38:33.685Z,9.20
2022-10-21T15:41:01.766Z,9.20
2022-10-21T15:43:29.834Z,9.20
2022-10-21T15:45:57.727Z,9.20
2022-10-21T15:48:25.886Z,9.20
2022-10-21T15:50:57.212Z,9.20
2022-10-21T15:53:25.286Z,9.20
2022-10-21T15:55:55.000Z,9.20
2022-10-21T15:58:23.160Z,9.20
2022-10-21T16:00:53.464Z,9.10
2022-10-21T16:03:22.634Z,9.10
2022-10-21T16:05:50.987Z,9.40
2022-10-21T16:08:19.270Z,9.10
2022-10-21T16:10:47.937Z,9.10
2022-10-21T16:13:17.434Z,9.10
2022-10-21T16:15:45.831Z,9.10
2022-10-21T16:18:15.806Z,9.00
2022-10-21T16:20:44.517Z,9.00
2022-10-21T16:23:12.635Z,9.00
2022-10-21T16:25:42.993Z,9.00
2022-10-21T16:28:13.365Z,9.00
2022-10-21T16:30:42.810Z,9.00
2022-10-21T16:33:11.231Z,9.00
2022-10-21T16:35:39.275Z,9.00
2022-10-21T16:38:07.251Z,9.00
2022-10-21T16:40:36.518Z,9.00
2022-10-21T16:43:04.413Z,9.00
2022-10-21T16:45:33.580Z,9.00
2022-10-21T16:48:05.368Z,9.00
2022-10-21T16:50:39.501Z,9.00
2022-10-21T16:53:08.504Z,9.00
2022-10-21T16:55:36.448Z,9.00
2022-10-21T16:58:04.443Z,9.00
2022-10-21T17:00:32.458Z,8.90
2022-10-21T17:03:01.860Z,8.30
2022-10-21T17:05:30.086Z,8.90
2022-10-21T17:07:58.686Z,8.90
2022-10-21T17:10:26.742Z,8.90
2022-10-21T17:12:58.880Z,8.80
2022-10-21T17:15:27.824Z,8.80
2022-10-21T17:17:56.147Z,8.80
2022-10-21T17:20:30.245Z,8.70
2022-10-21T17:22:58.420Z,8.70
2022-10-21T17:25:26.850Z,8.70
2022-10-21T17:27:54.929Z,8.60
2022-10-21T17:30:23.156Z,8.60
2022-10-21T17:32:51.119Z,8.50
2022-10-21T17:35:19.830Z,8.50
2022-10-21T17:37:50.093Z,8.50
2022-10-21T17:40:19.994Z,8.40
2022-10-21T17:42:48.580Z,8.40
2022-10-21T17:45:17.822Z,8.40
2022-10-21T17:47:52.887Z,8.40
2022-10-21T17:50:23.761Z,8.40
2022-10-21T17:52:54.392Z,8.20
2022-10-21T17:55:22.650Z,8.30
2022-10-21T17:57:50.757Z,8.20
2022-10-21T18:00:18.922Z,8.20
2022-10-21T18:02:46.984Z,8.20
2022-10-21T18:05:14.994Z,8.20
2022-10-21T18:07:42.958Z,8.20
2022-10-21T18:10:12.578Z,8.10
2022-10-21T18:12:40.709Z,8.20
2022-10-21T18:15:09.238Z,8.10
2022-10-21T18:17:39.883Z,8.10
2022-10-21T18:20:09.407Z,8.10
2022-10-21T18:22:37.582Z,8.10
2022-10-21T18:25:06.297Z,8.00
2022-10-21T18:27:35.854Z,8.00
2022-10-21T18:30:05.367Z,8.00
2022-10-21T18:32:33.326Z,8.00
2022-10-21T18:35:01.227Z,8.00
2022-10-21T18:37:29.162Z,8.00
2022-10-21T18:39:58.973Z,8.00
2022-10-21T18:42:27.162Z,8.00
2022-10-21T18:44:56.464Z,8.00
2022-10-21T18:47:24.384Z,8.00
2022-10-21T18:49:52.332Z,8.00
2022-10-21T18:52:20.263Z,8.00
2022-10-21T18:54:48.150Z,8.00
2022-10-21T18:57:16.131Z,8.20
2022-10-21T18:59:44.096Z,8.10
2022-10-21T19:02:20.333Z,8.10
2022-10-21T19:04:48.354Z,8.10
2022-10-21T19:07:16.422Z,8.20
2022-10-21T19:09:44.923Z,8.10
2022-10-21T19:12:16.345Z,8.10
2022-10-21T19:14:47.971Z,8.30
2022-10-21T19:17:17.249Z,8.10
2022-10-21T19:19:45.185Z,8.20
2022-10-21T19:22:14.561Z,8.20
2022-10-21T19:24:42.484Z,8.20
2022-10-21T19:27:10.545Z,8.20
2022-10-21T19:29:38.480Z,8.20
2022-10-21T19:32:06.585Z,8.20
2022-10-21T19:34:35.935Z,8.20
2022-10-21T19:37:03.899Z,8.20
2022-10-21T19:39:32.384Z,8.30
2022-10-21T19:42:00.474Z,8.20
2022-10-21T19:44:28.584Z,8.30
2022-10-21T19:46:56.516Z,8.30
2022-10-21T19:49:24.455Z,8.30
2022-10-21T19:51:53.757Z,8.30
2022-10-21T19:54:21.714Z,8.30
2022-10-21T19:56:49.627Z,8.30
2022-10-21T20:01:50.887Z,8.30
2022-10-21T20:04:19.032Z,8.30
2022-10-21T20:06:49.517Z,8.30
2022-10-21T20:09:24.312Z,8.30
2022-10-21T20:11:52.627Z,8.30
2022-10-21T20:14:20.889Z,8.30
2022-10-21T20:16:50.071Z,8.40
2022-10-21T20:19:20.385Z,8.40
2022-10-21T20:21:51.468Z,8.30
2022-10-21T20:24:22.848Z,8.40
2022-10-21T20:26:51.433Z,8.40
2022-10-21T20:29:22.047Z,8.40
2022-10-21T20:31:49.953Z,8.40
2022-10-21T20:34:22.160Z,8.40
2022-10-21T20:36:50.742Z,8.40
2022-10-21T20:39:23.196Z,8.40
2022-10-21T20:41:51.407Z,8.40
2022-10-21T20:44:22.422Z,8.50
2022-10-21T20:46:51.090Z,8.50
2022-10-21T20:49:19.214Z,8.50
2022-10-21T20:51:56.737Z,8.40
2022-10-21T20:54:28.087Z,8.40
2022-10-21T20:56:56.871Z,8.40
2022-10-21T20:59:26.930Z,8.50
2022-10-21T21:01:54.941Z,8.40
2022-10-21T21:04:24.385Z,8.50
2022-10-21T21:06:52.458Z,8.50
2022-10-21T21:09:44.018Z,8.50
2022-10-21T21:12:11.305Z,8.50
2022-10-21T21:14:39.236Z,8.50
2022-10-21T21:17:07.493Z,8.50
2022-10-21T21:19:35.410Z,8.40
2022-10-21T21:22:03.870Z,8.40
2022-10-21T21:24:32.016Z,8.40
2022-10-21T21:26:59.947Z,8.40
2022-10-21T21:29:29.291Z,8.40
2022-10-21T21:31:57.236Z,8.40
2022-10-21T21:34:25.159Z,8.30
2022-10-21T21:36:53.093Z,8.30
2022-10-21T21:39:21.012Z,8.30
2022-10-21T21:41:51.103Z,8.30
2022-10-21T21:44:19.013Z,8.20
2022-10-21T21:46:48.290Z,8.20
2022-10-21T21:49:16.239Z,8.20
2022-10-21T21:51:44.160Z,8.20
2022-10-21T21:54:12.138Z,8.20
2022-10-21T21:56:40.121Z,8.20
2022-10-21T21:59:08.076Z,8.20
2022-10-21T22:01:36.373Z,8.20
2022-10-21T22:04:05.860Z,8.20
2022-10-21T22:06:36.980Z,8.20
2022-10-21T22:09:09.871Z,8.20
2022-10-21T22:11:38.678Z,8.10
2022-10-21T22:14:06.678Z,8.10
2022-10-21T22:16:34.786Z,8.10
2022-10-21T22:19:03.265Z,8.10
2022-10-21T22:21:33.284Z,8.10
2022-10-21T22:24:01.233Z,8.00
2022-10-21T22:26:29.963Z,8.10
2022-10-21T22:28:58.050Z,8.00
2022-10-21T22:31:29.447Z,8.00
2022-10-21T22:34:00.175Z,8.10
2022-10-21T22:36:28.548Z,8.00
2022-10-21T22:38:57.950Z,8.00
2022-10-21T22:41:26.263Z,8.10
2022-10-21T22:43:54.235Z,8.10
2022-10-21T22:46:34.431Z,8.10
2022-10-21T22:49:03.585Z,8.10
2022-10-21T22:51:31.562Z,7.50
2022-10-21T22:54:01.158Z,8.00
2022-10-21T22:56:29.574Z,8.10
2022-10-21T22:58:58.217Z,8.00
2022-10-21T23:01:29.041Z,8.00
2022-10-21T23:03:57.998Z,8.00
2022-10-21T23:06:25.914Z,8.10
2022-10-21T23:08:53.920Z,8.10
2022-10-21T23:11:23.564Z,8.10
2022-10-21T23:14:02.481Z,8.10
2022-10-21T23:16:31.875Z,8.00
2022-10-21T23:19:00.271Z,8.10
2022-10-21T23:21:29.012Z,8.10
2022-10-21T23:23:56.995Z,8.00
2022-10-21T23:26:26.629Z,8.00
2022-10-21T23:28:54.661Z,8.10
2022-10-21T23:31:22.657Z,8.00
2022-10-21T23:33:50.574Z,8.00
2022-10-21T23:36:18.825Z,8.00
2022-10-21T23:38:46.777Z,8.00
2022-10-21T23:41:14.760Z,8.00
2022-10-21T23:43:44.070Z,8.00
2022-10-21T23:46:11.994Z,8.00
2022-10-21T23:48:39.883Z,8.00
2022-10-21T23:51:07.897Z,8.10
2022-10-21T23:53:35.822Z,8.10
2022-10-21T23:56:04.225Z,8.10
2022-10-21T23:58:32.217Z,8.10
